sensor_id;sensor_type;location;lat;lon;timestamp;P1;durP1;ratioP1;P2;durP2;ratioP2
51174;SDS011;37240;50.104;20.010;2022-10-19T00:00:09;2.13;;;1.48;;
51174;SDS011;37240;50.104;20.010;2022-10-19T00:05:10;1.48;;;1.38;;
51174;SDS011;37240;50.104;20.010;2022-10-19T00:10:10;1.58;;;1.50;;
51174;SDS011;37240;50.104;20.010;2022-10-19T00:15:11;2.00;;;1.90;;
51174;SDS011;37240;50.104;20.010;2022-10-19T00:20:12;1.95;;;1.85;;
51174;SDS011;37240;50.104;20.010;2022-10-19T00:25:12;1.90;;;1.80;;
51174;SDS011;37240;50.104;20.010;2022-10-19T00:30:13;1.83;;;1.73;;
51174;SDS011;37240;50.104;20.010;2022-10-19T00:35:13;2.00;;;1.90;;
51174;SDS011;37240;50.104;20.010;2022-10-19T00:40:14;1.77;;;1.20;;
51174;SDS011;37240;50.104;20.010;2022-10-19T00:45:16;1.35;;;1.25;;
51174;SDS011;37240;50.104;20.010;2022-10-19T00:50:16;1.70;;;1.60;;
51174;SDS011;37240;50.104;20.010;2022-10-19T00:55:17;2.00;;;1.90;;
51174;SDS011;37240;50.104;20.010;2022-10-19T01:00:18;1.52;;;1.42;;
51174;SDS011;37240;50.104;20.010;2022-10-19T01:05:19;3.40;;;1.85;;
51174;SDS011;37240;50.104;20.010;2022-10-19T01:10:21;2.55;;;2.35;;
51174;SDS011;37240;50.104;20.010;2022-10-19T01:15:31;2.38;;;2.25;;
51174;SDS011;37240;50.104;20.010;2022-10-19T01:26:33;3.05;;;2.72;;
51174;SDS011;37240;50.104;20.010;2022-10-19T01:31:59;2.65;;;1.98;;
51174;SDS011;37240;50.104;20.010;2022-10-19T01:42:25;3.78;;;3.05;;
51174;SDS011;37240;50.104;20.010;2022-10-19T01:47:39;3.30;;;3.10;;
51174;SDS011;37240;50.104;20.010;2022-10-19T01:52:44;3.83;;;3.45;;
51174;SDS011;37240;50.104;20.010;2022-10-19T01:57:54;3.67;;;3.38;;
51174;SDS011;37240;50.104;20.010;2022-10-19T02:03:00;6.15;;;3.67;;
51174;SDS011;37240;50.104;20.010;2022-10-19T02:08:14;4.25;;;3.60;;
51174;SDS011;37240;50.104;20.010;2022-10-19T02:13:21;6.18;;;4.50;;
51174;SDS011;37240;50.104;20.010;2022-10-19T02:18:27;6.38;;;3.97;;
51174;SDS011;37240;50.104;20.010;2022-10-19T02:23:31;6.55;;;4.70;;
51174;SDS011;37240;50.104;20.010;2022-10-19T02:28:32;4.82;;;4.53;;
51174;SDS011;37240;50.104;20.010;2022-10-19T02:33:33;6.65;;;5.55;;
51174;SDS011;37240;50.104;20.010;2022-10-19T02:38:35;15.07;;;9.90;;
51174;SDS011;37240;50.104;20.010;2022-10-19T02:43:36;9.13;;;7.20;;
51174;SDS011;37240;50.104;20.010;2022-10-19T02:48:39;7.43;;;6.22;;
51174;SDS011;37240;50.104;20.010;2022-10-19T02:53:41;8.10;;;5.85;;
51174;SDS011;37240;50.104;20.010;2022-10-19T02:58:42;7.53;;;6.38;;
51174;SDS011;37240;50.104;20.010;2022-10-19T03:03:42;8.27;;;6.85;;
51174;SDS011;37240;50.104;20.010;2022-10-19T03:08:43;7.50;;;6.28;;
51174;SDS011;37240;50.104;20.010;2022-10-19T03:13:44;8.48;;;6.53;;
51174;SDS011;37240;50.104;20.010;2022-10-19T03:18:46;9.43;;;6.72;;
51174;SDS011;37240;50.104;20.010;2022-10-19T03:23:47;7.75;;;6.90;;
51174;SDS011;37240;50.104;20.010;2022-10-19T03:28:48;8.05;;;7.28;;
51174;SDS011;37240;50.104;20.010;2022-10-19T03:33:48;9.43;;;7.88;;
51174;SDS011;37240;50.104;20.010;2022-10-19T03:38:53;13.77;;;8.63;;
51174;SDS011;37240;50.104;20.010;2022-10-19T03:43:55;9.48;;;7.53;;
51174;SDS011;37240;50.104;20.010;2022-10-19T03:48:56;10.35;;;7.60;;
51174;SDS011;37240;50.104;20.010;2022-10-19T03:53:58;11.65;;;8.55;;
51174;SDS011;37240;50.104;20.010;2022-10-19T03:59:04;10.38;;;8.30;;
51174;SDS011;37240;50.104;20.010;2022-10-19T04:04:07;11.52;;;8.57;;
51174;SDS011;37240;50.104;20.010;2022-10-19T04:09:12;8.88;;;7.97;;
51174;SDS011;37240;50.104;20.010;2022-10-19T04:14:15;10.88;;;7.72;;
51174;SDS011;37240;50.104;20.010;2022-10-19T04:19:17;9.60;;;7.45;;
51174;SDS011;37240;50.104;20.010;2022-10-19T04:24:17;10.93;;;8.35;;
51174;SDS011;37240;50.104;20.010;2022-10-19T04:29:19;10.93;;;7.85;;
51174;SDS011;37240;50.104;20.010;2022-10-19T04:34:21;12.35;;;9.48;;
51174;SDS011;37240;50.104;20.010;2022-10-19T04:39:21;14.10;;;9.10;;
51174;SDS011;37240;50.104;20.010;2022-10-19T04:44:22;10.98;;;8.15;;
51174;SDS011;37240;50.104;20.010;2022-10-19T04:49:22;12.70;;;7.78;;
51174;SDS011;37240;50.104;20.010;2022-10-19T04:54:23;11.98;;;7.93;;
51174;SDS011;37240;50.104;20.010;2022-10-19T04:59:24;8.75;;;7.80;;
51174;SDS011;37240;50.104;20.010;2022-10-19T05:04:24;10.15;;;8.20;;
51174;SDS011;37240;50.104;20.010;2022-10-19T05:09:25;9.90;;;7.72;;
51174;SDS011;37240;50.104;20.010;2022-10-19T05:14:25;12.70;;;10.15;;
51174;SDS011;37240;50.104;20.010;2022-10-19T05:19:26;20.63;;;10.82;;
51174;SDS011;37240;50.104;20.010;2022-10-19T05:24:26;18.77;;;11.02;;
51174;SDS011;37240;50.104;20.010;2022-10-19T05:29:27;22.08;;;10.88;;
51174;SDS011;37240;50.104;20.010;2022-10-19T05:34:27;11.27;;;8.77;;
51174;SDS011;37240;50.104;20.010;2022-10-19T05:39:28;12.18;;;8.60;;
51174;SDS011;37240;50.104;20.010;2022-10-19T05:44:28;13.32;;;9.05;;
51174;SDS011;37240;50.104;20.010;2022-10-19T05:49:29;10.98;;;8.50;;
51174;SDS011;37240;50.104;20.010;2022-10-19T05:54:29;12.38;;;7.80;;
51174;SDS011;37240;50.104;20.010;2022-10-19T05:59:30;12.80;;;6.30;;
51174;SDS011;37240;50.104;20.010;2022-10-19T06:04:31;8.85;;;5.97;;
51174;SDS011;37240;50.104;20.010;2022-10-19T06:09:31;11.48;;;6.85;;
51174;SDS011;37240;50.104;20.010;2022-10-19T06:14:32;6.72;;;6.07;;
51174;SDS011;37240;50.104;20.010;2022-10-19T06:19:32;8.63;;;6.32;;
51174;SDS011;37240;50.104;20.010;2022-10-19T06:24:33;9.57;;;5.97;;
51174;SDS011;37240;50.104;20.010;2022-10-19T06:29:34;11.20;;;5.22;;
51174;SDS011;37240;50.104;20.010;2022-10-19T06:34:34;11.38;;;4.60;;
51174;SDS011;37240;50.104;20.010;2022-10-19T06:39:35;10.75;;;3.55;;
51174;SDS011;37240;50.104;20.010;2022-10-19T06:44:35;7.75;;;3.10;;
51174;SDS011;37240;50.104;20.010;2022-10-19T06:49:36;8.75;;;3.85;;
51174;SDS011;37240;50.104;20.010;2022-10-19T06:54:36;7.22;;;3.40;;
51174;SDS011;37240;50.104;20.010;2022-10-19T06:59:37;6.57;;;3.33;;
51174;SDS011;37240;50.104;20.010;2022-10-19T07:04:37;5.10;;;3.88;;
51174;SDS011;37240;50.104;20.010;2022-10-19T07:09:38;7.57;;;3.58;;
51174;SDS011;37240;50.104;20.010;2022-10-19T07:14:39;17.25;;;4.45;;
51174;SDS011;37240;50.104;20.010;2022-10-19T07:19:39;7.78;;;4.63;;
51174;SDS011;37240;50.104;20.010;2022-10-19T07:24:40;18.58;;;3.60;;
51174;SDS011;37240;50.104;20.010;2022-10-19T07:29:40;14.95;;;4.60;;
51174;SDS011;37240;50.104;20.010;2022-10-19T07:34:41;9.75;;;4.30;;
51174;SDS011;37240;50.104;20.010;2022-10-19T07:39:41;14.85;;;4.18;;
51174;SDS011;37240;50.104;20.010;2022-10-19T07:44:42;7.45;;;5.38;;
51174;SDS011;37240;50.104;20.010;2022-10-19T07:49:42;12.75;;;7.10;;
51174;SDS011;37240;50.104;20.010;2022-10-19T07:54:43;10.30;;;7.13;;
51174;SDS011;37240;50.104;20.010;2022-10-19T07:59:43;15.10;;;6.50;;
51174;SDS011;37240;50.104;20.010;2022-10-19T08:04:44;17.55;;;7.35;;
51174;SDS011;37240;50.104;20.010;2022-10-19T08:09:45;16.02;;;7.43;;
51174;SDS011;37240;50.104;20.010;2022-10-19T08:14:45;15.30;;;6.50;;
51174;SDS011;37240;50.104;20.010;2022-10-19T08:19:46;18.38;;;9.07;;
51174;SDS011;37240;50.104;20.010;2022-10-19T08:24:47;20.50;;;7.25;;
51174;SDS011;37240;50.104;20.010;2022-10-19T08:29:48;20.08;;;7.97;;
51174;SDS011;37240;50.104;20.010;2022-10-19T08:34:48;18.58;;;7.57;;
51174;SDS011;37240;50.104;20.010;2022-10-19T08:39:49;14.20;;;6.78;;
51174;SDS011;37240;50.104;20.010;2022-10-19T08:45:12;13.65;;;6.60;;
51174;SDS011;37240;50.104;20.010;2022-10-19T08:50:23;12.10;;;4.28;;
51174;SDS011;37240;50.104;20.010;2022-10-19T08:55:32;10.73;;;4.00;;
51174;SDS011;37240;50.104;20.010;2022-10-19T09:01:04;10.57;;;4.65;;
51174;SDS011;37240;50.104;20.010;2022-10-19T09:11:36;10.40;;;4.25;;
51174;SDS011;37240;50.104;20.010;2022-10-19T09:16:41;14.23;;;4.07;;
51174;SDS011;37240;50.104;20.010;2022-10-19T09:21:43;7.10;;;3.75;;
51174;SDS011;37240;50.104;20.010;2022-10-19T09:26:50;11.45;;;3.72;;
51174;SDS011;37240;50.104;20.010;2022-10-19T09:31:54;11.68;;;3.70;;
51174;SDS011;37240;50.104;20.010;2022-10-19T09:36:57;5.95;;;3.30;;
51174;SDS011;37240;50.104;20.010;2022-10-19T09:42:03;4.82;;;2.75;;
51174;SDS011;37240;50.104;20.010;2022-10-19T09:52:32;4.57;;;2.00;;
51174;SDS011;37240;50.104;20.010;2022-10-19T09:57:40;5.15;;;1.27;;
51174;SDS011;37240;50.104;20.010;2022-10-19T10:03:04;15.15;;;2.10;;
51174;SDS011;37240;50.104;20.010;2022-10-19T10:08:16;14.45;;;3.65;;
51174;SDS011;37240;50.104;20.010;2022-10-19T10:13:20;17.42;;;5.68;;
51174;SDS011;37240;50.104;20.010;2022-10-19T10:18:24;6.72;;;2.28;;
51174;SDS011;37240;50.104;20.010;2022-10-19T10:23:30;9.10;;;2.40;;
51174;SDS011;37240;50.104;20.010;2022-10-19T10:28:32;7.70;;;1.98;;
51174;SDS011;37240;50.104;20.010;2022-10-19T10:33:34;13.98;;;1.38;;
51174;SDS011;37240;50.104;20.010;2022-10-19T10:38:40;6.95;;;1.48;;
51174;SDS011;37240;50.104;20.010;2022-10-19T10:43:53;7.35;;;1.42;;
51174;SDS011;37240;50.104;20.010;2022-10-19T10:49:16;6.35;;;1.23;;
51174;SDS011;37240;50.104;20.010;2022-10-19T10:54:22;9.45;;;2.25;;
51174;SDS011;37240;50.104;20.010;2022-10-19T10:59:29;3.22;;;1.65;;
51174;SDS011;37240;50.104;20.010;2022-10-19T11:04:35;4.47;;;1.70;;
51174;SDS011;37240;50.104;20.010;2022-10-19T11:09:41;2.75;;;1.55;;
51174;SDS011;37240;50.104;20.010;2022-10-19T11:14:48;3.90;;;0.98;;
51174;SDS011;37240;50.104;20.010;2022-10-19T11:19:55;6.95;;;1.25;;
51174;SDS011;37240;50.104;20.010;2022-10-19T11:40:58;7.50;;;1.17;;
51174;SDS011;37240;50.104;20.010;2022-10-19T11:57:43;3.33;;;1.48;;
51174;SDS011;37240;50.104;20.010;2022-10-19T12:02:58;4.65;;;1.25;;
51174;SDS011;37240;50.104;20.010;2022-10-19T12:13:17;8.10;;;1.52;;
51174;SDS011;37240;50.104;20.010;2022-10-19T12:18:35;8.60;;;2.53;;
51174;SDS011;37240;50.104;20.010;2022-10-19T12:23:41;8.20;;;2.25;;
51174;SDS011;37240;50.104;20.010;2022-10-19T12:28:54;5.03;;;1.88;;
51174;SDS011;37240;50.104;20.010;2022-10-19T12:54:49;3.08;;;1.60;;
51174;SDS011;37240;50.104;20.010;2022-10-19T12:59:57;2.08;;;1.45;;
51174;SDS011;37240;50.104;20.010;2022-10-19T13:05:00;5.60;;;2.38;;
51174;SDS011;37240;50.104;20.010;2022-10-19T13:10:03;7.80;;;1.75;;
51174;SDS011;37240;50.104;20.010;2022-10-19T13:15:08;10.20;;;2.50;;
51174;SDS011;37240;50.104;20.010;2022-10-19T13:20:48;3.70;;;2.03;;
51174;SDS011;37240;50.104;20.010;2022-10-19T13:26:21;6.63;;;2.33;;
51174;SDS011;37240;50.104;20.010;2022-10-19T13:31:30;11.32;;;2.95;;
51174;SDS011;37240;50.104;20.010;2022-10-19T13:36:30;7.32;;;2.72;;
51174;SDS011;37240;50.104;20.010;2022-10-19T13:57:45;5.13;;;2.10;;
51174;SDS011;37240;50.104;20.010;2022-10-19T14:19:18;7.68;;;2.75;;
51174;SDS011;37240;50.104;20.010;2022-10-19T14:24:29;13.75;;;3.08;;
51174;SDS011;37240;50.104;20.010;2022-10-19T14:29:55;7.80;;;3.55;;
51174;SDS011;37240;50.104;20.010;2022-10-19T14:34:58;7.55;;;3.22;;
51174;SDS011;37240;50.104;20.010;2022-10-19T14:45:05;14.05;;;3.30;;
51174;SDS011;37240;50.104;20.010;2022-10-19T14:50:12;3.97;;;2.95;;
51174;SDS011;37240;50.104;20.010;2022-10-19T14:55:13;11.38;;;3.10;;
51174;SDS011;37240;50.104;20.010;2022-10-19T15:00:17;12.15;;;3.40;;
51174;SDS011;37240;50.104;20.010;2022-10-19T15:05:24;14.20;;;3.13;;
51174;SDS011;37240;50.104;20.010;2022-10-19T15:10:34;22.67;;;3.75;;
51174;SDS011;37240;50.104;20.010;2022-10-19T15:15:40;7.22;;;3.80;;
51174;SDS011;37240;50.104;20.010;2022-10-19T15:20:41;12.73;;;3.13;;
51174;SDS011;37240;50.104;20.010;2022-10-19T15:25:41;4.82;;;3.17;;
51174;SDS011;37240;50.104;20.010;2022-10-19T15:30:42;6.95;;;3.15;;
51174;SDS011;37240;50.104;20.010;2022-10-19T15:35:43;8.75;;;2.88;;
51174;SDS011;37240;50.104;20.010;2022-10-19T15:40:44;7.72;;;3.10;;
51174;SDS011;37240;50.104;20.010;2022-10-19T15:45:45;7.20;;;3.53;;
51174;SDS011;37240;50.104;20.010;2022-10-19T15:50:46;5.35;;;3.35;;
51174;SDS011;37240;50.104;20.010;2022-10-19T15:55:49;12.60;;;3.35;;
51174;SDS011;37240;50.104;20.010;2022-10-19T16:00:49;4.38;;;3.10;;
51174;SDS011;37240;50.104;20.010;2022-10-19T16:05:50;5.47;;;2.95;;
51174;SDS011;37240;50.104;20.010;2022-10-19T16:10:50;10.45;;;3.38;;
51174;SDS011;37240;50.104;20.010;2022-10-19T16:15:51;6.25;;;2.95;;
51174;SDS011;37240;50.104;20.010;2022-10-19T16:21:01;4.15;;;1.88;;
51174;SDS011;37240;50.104;20.010;2022-10-19T16:26:04;6.93;;;2.22;;
51174;SDS011;37240;50.104;20.010;2022-10-19T16:31:05;5.20;;;2.55;;
51174;SDS011;37240;50.104;20.010;2022-10-19T16:36:06;6.00;;;2.47;;
51174;SDS011;37240;50.104;20.010;2022-10-19T16:41:08;8.45;;;2.50;;
51174;SDS011;37240;50.104;20.010;2022-10-19T16:46:10;4.13;;;2.17;;
51174;SDS011;37240;50.104;20.010;2022-10-19T16:56:20;7.40;;;3.75;;
51174;SDS011;37240;50.104;20.010;2022-10-19T17:01:21;8.23;;;3.70;;
51174;SDS011;37240;50.104;20.010;2022-10-19T17:06:22;5.88;;;2.92;;
51174;SDS011;37240;50.104;20.010;2022-10-19T17:11:26;4.65;;;2.63;;
51174;SDS011;37240;50.104;20.010;2022-10-19T17:16:29;7.80;;;3.50;;
51174;SDS011;37240;50.104;20.010;2022-10-19T17:21:33;3.92;;;3.30;;
51174;SDS011;37240;50.104;20.010;2022-10-19T17:26:36;7.45;;;4.20;;
51174;SDS011;37240;50.104;20.010;2022-10-19T17:31:39;6.15;;;3.20;;
51174;SDS011;37240;50.104;20.010;2022-10-19T17:36:41;6.50;;;3.72;;
51174;SDS011;37240;50.104;20.010;2022-10-19T17:41:43;9.57;;;4.15;;
51174;SDS011;37240;50.104;20.010;2022-10-19T17:46:45;7.30;;;3.35;;
51174;SDS011;37240;50.104;20.010;2022-10-19T17:51:46;4.88;;;2.80;;
51174;SDS011;37240;50.104;20.010;2022-10-19T17:56:46;3.80;;;2.20;;
51174;SDS011;37240;50.104;20.010;2022-10-19T18:01:47;4.90;;;2.72;;
51174;SDS011;37240;50.104;20.010;2022-10-19T18:06:47;7.80;;;2.70;;
51174;SDS011;37240;50.104;20.010;2022-10-19T18:11:48;5.32;;;3.20;;
51174;SDS011;37240;50.104;20.010;2022-10-19T18:16:48;40.47;;;20.40;;
51174;SDS011;37240;50.104;20.010;2022-10-19T18:21:49;22.42;;;9.93;;
51174;SDS011;37240;50.104;20.010;2022-10-19T18:26:49;8.18;;;5.18;;
51174;SDS011;37240;50.104;20.010;2022-10-19T18:31:50;4.05;;;3.38;;
51174;SDS011;37240;50.104;20.010;2022-10-19T18:36:52;6.25;;;3.33;;
51174;SDS011;37240;50.104;20.010;2022-10-19T18:41:53;5.18;;;3.28;;
51174;SDS011;37240;50.104;20.010;2022-10-19T18:46:54;4.82;;;3.10;;
51174;SDS011;37240;50.104;20.010;2022-10-19T18:51:55;7.40;;;3.45;;
51174;SDS011;37240;50.104;20.010;2022-10-19T18:56:56;10.98;;;4.07;;
51174;SDS011;37240;50.104;20.010;2022-10-19T19:01:56;4.43;;;3.35;;
51174;SDS011;37240;50.104;20.010;2022-10-19T19:06:57;3.70;;;2.95;;
51174;SDS011;37240;50.104;20.010;2022-10-19T19:11:58;5.90;;;3.80;;
51174;SDS011;37240;50.104;20.010;2022-10-19T19:16:58;8.25;;;4.43;;
51174;SDS011;37240;50.104;20.010;2022-10-19T19:21:59;9.45;;;4.07;;
51174;SDS011;37240;50.104;20.010;2022-10-19T19:26:59;8.70;;;4.90;;
51174;SDS011;37240;50.104;20.010;2022-10-19T19:32:00;8.05;;;5.00;;
51174;SDS011;37240;50.104;20.010;2022-10-19T19:37:00;8.88;;;5.07;;
51174;SDS011;37240;50.104;20.010;2022-10-19T19:42:01;9.10;;;5.28;;
51174;SDS011;37240;50.104;20.010;2022-10-19T19:47:01;9.63;;;4.90;;
51174;SDS011;37240;50.104;20.010;2022-10-19T19:52:02;10.07;;;4.45;;
51174;SDS011;37240;50.104;20.010;2022-10-19T19:57:02;10.27;;;4.65;;
51174;SDS011;37240;50.104;20.010;2022-10-19T20:02:03;6.97;;;4.60;;
51174;SDS011;37240;50.104;20.010;2022-10-19T20:07:04;10.68;;;5.72;;
51174;SDS011;37240;50.104;20.010;2022-10-19T20:12:04;9.43;;;5.53;;
51174;SDS011;37240;50.104;20.010;2022-10-19T20:17:05;11.18;;;6.10;;
51174;SDS011;37240;50.104;20.010;2022-10-19T20:22:05;16.17;;;6.32;;
51174;SDS011;37240;50.104;20.010;2022-10-19T20:27:06;8.38;;;5.55;;
51174;SDS011;37240;50.104;20.010;2022-10-19T20:32:06;9.27;;;5.82;;
51174;SDS011;37240;50.104;20.010;2022-10-19T20:37:07;11.32;;;5.65;;
51174;SDS011;37240;50.104;20.010;2022-10-19T20:42:08;9.85;;;6.28;;
51174;SDS011;37240;50.104;20.010;2022-10-19T20:47:09;13.77;;;5.28;;
51174;SDS011;37240;50.104;20.010;2022-10-19T20:52:10;8.93;;;4.35;;
51174;SDS011;37240;50.104;20.010;2022-10-19T20:57:11;6.35;;;4.60;;
51174;SDS011;37240;50.104;20.010;2022-10-19T21:02:11;8.77;;;4.60;;
51174;SDS011;37240;50.104;20.010;2022-10-19T21:07:12;7.60;;;4.55;;
51174;SDS011;37240;50.104;20.010;2022-10-19T21:12:12;9.65;;;4.60;;
51174;SDS011;37240;50.104;20.010;2022-10-19T21:17:13;10.85;;;4.45;;
51174;SDS011;37240;50.104;20.010;2022-10-19T21:22:13;6.22;;;5.22;;
51174;SDS011;37240;50.104;20.010;2022-10-19T21:27:14;7.88;;;5.72;;
51174;SDS011;37240;50.104;20.010;2022-10-19T21:32:14;7.82;;;5.78;;
51174;SDS011;37240;50.104;20.010;2022-10-19T21:37:15;9.05;;;4.97;;
51174;SDS011;37240;50.104;20.010;2022-10-19T21:42:15;10.15;;;5.30;;
51174;SDS011;37240;50.104;20.010;2022-10-19T21:47:16;11.55;;;5.68;;
51174;SDS011;37240;50.104;20.010;2022-10-19T21:52:16;11.30;;;5.50;;
51174;SDS011;37240;50.104;20.010;2022-10-19T21:57:17;9.15;;;4.75;;
51174;SDS011;37240;50.104;20.010;2022-10-19T22:02:17;10.73;;;5.82;;
51174;SDS011;37240;50.104;20.010;2022-10-19T22:07:18;7.22;;;5.07;;
51174;SDS011;37240;50.104;20.010;2022-10-19T22:12:18;6.90;;;4.63;;
51174;SDS011;37240;50.104;20.010;2022-10-19T22:17:19;6.38;;;3.97;;
51174;SDS011;37240;50.104;20.010;2022-10-19T22:22:19;9.02;;;3.60;;
51174;SDS011;37240;50.104;20.010;2022-10-19T22:27:20;3.88;;;2.92;;
51174;SDS011;37240;50.104;20.010;2022-10-19T22:32:20;6.57;;;3.38;;
51174;SDS011;37240;50.104;20.010;2022-10-19T22:37:21;6.28;;;2.55;;
51174;SDS011;37240;50.104;20.010;2022-10-19T22:48:00;2.45;;;1.83;;
51174;SDS011;37240;50.104;20.010;2022-10-19T22:53:00;9.73;;;2.13;;
51174;SDS011;37240;50.104;20.010;2022-10-19T22:58:01;2.60;;;1.85;;
51174;SDS011;37240;50.104;20.010;2022-10-19T23:03:03;5.90;;;2.25;;
51174;SDS011;37240;50.104;20.010;2022-10-19T23:08:04;4.20;;;2.03;;
51174;SDS011;37240;50.104;20.010;2022-10-19T23:13:04;4.38;;;1.90;;
51174;SDS011;37240;50.104;20.010;2022-10-19T23:18:05;2.42;;;1.80;;
51174;SDS011;37240;50.104;20.010;2022-10-19T23:23:05;2.92;;;1.92;;
51174;SDS011;37240;50.104;20.010;2022-10-19T23:28:06;4.93;;;2.22;;
51174;SDS011;37240;50.104;20.010;2022-10-19T23:33:07;5.13;;;1.70;;
51174;SDS011;37240;50.104;20.010;2022-10-19T23:38:07;2.00;;;1.58;;
51174;SDS011;37240;50.104;20.010;2022-10-19T23:43:08;3.90;;;2.30;;
51174;SDS011;37240;50.104;20.010;2022-10-19T23:48:09;5.22;;;2.15;;
51174;SDS011;37240;50.104;20.010;2022-10-19T23:53:09;2.50;;;1.33;;
51174;SDS011;37240;50.104;20.010;2022-10-19T23:58:10;7.25;;;1.85;;
